Terminal Aerodrome Forecast
Issued by NWS Charleston, WV

Home | Current Version | Previous Version | Text Only | Print | Product List | Glossary On
Versions: 1 2 3 4 5 6 7 8 9 10 11 12 13 14 15 16 17 18 19 20 21 22 23
000
FTUS41 KRLX 291700
TAFPKB
TAF
KPKB 291723Z 2918/3018 19008KT P6SM SCT200
     FM300400 19009KT 6SM -SHRA BR BKN080
     FM300600 23010G20KT 4SM -SHRA BR BKN018 OVC035
     FM301000 25007KT 6SM BR BKN020 OVC050
     FM301300 25005KT P6SM SCT020
     FM301500 27009G14KT P6SM SCT025=

USA.gov is the U.S. government's official web portal to all federal, state and local government web resources and services.